sensor_id;sensor_type;location;lat;lon;timestamp;P1;durP1;ratioP1;P2;durP2;ratioP2
8564;SDS011;4320;51.498;6.556;2023-04-25T00:01:03;8.37;;;4.97;;
8564;SDS011;4320;51.498;6.556;2023-04-25T00:03:34;8.10;;;4.80;;
8564;SDS011;4320;51.498;6.556;2023-04-25T00:06:00;10.10;;;4.50;;
8564;SDS011;4320;51.498;6.556;2023-04-25T00:08:26;18.83;;;5.23;;
8564;SDS011;4320;51.498;6.556;2023-04-25T00:10:53;14.97;;;4.60;;
8564;SDS011;4320;51.498;6.556;2023-04-25T00:13:19;11.33;;;4.70;;
8564;SDS011;4320;51.498;6.556;2023-04-25T00:15:45;14.50;;;5.13;;
8564;SDS011;4320;51.498;6.556;2023-04-25T00:18:11;11.20;;;5.20;;
8564;SDS011;4320;51.498;6.556;2023-04-25T00:20:37;14.87;;;4.67;;
8564;SDS011;4320;51.498;6.556;2023-04-25T00:23:02;11.77;;;4.83;;
8564;SDS011;4320;51.498;6.556;2023-04-25T00:25:28;17.53;;;5.10;;
8564;SDS011;4320;51.498;6.556;2023-04-25T00:27:54;15.93;;;4.83;;
8564;SDS011;4320;51.498;6.556;2023-04-25T00:30:20;9.97;;;4.83;;
8564;SDS011;4320;51.498;6.556;2023-04-25T00:32:46;12.67;;;4.67;;
8564;SDS011;4320;51.498;6.556;2023-04-25T00:35:11;8.50;;;4.33;;
8564;SDS011;4320;51.498;6.556;2023-04-25T00:37:37;15.90;;;5.30;;
8564;SDS011;4320;51.498;6.556;2023-04-25T00:40:04;9.63;;;4.70;;
8564;SDS011;4320;51.498;6.556;2023-04-25T00:42:31;10.77;;;5.17;;
8564;SDS011;4320;51.498;6.556;2023-04-25T00:44:57;9.17;;;4.43;;
8564;SDS011;4320;51.498;6.556;2023-04-25T00:47:24;13.93;;;4.97;;
8564;SDS011;4320;51.498;6.556;2023-04-25T00:49:50;8.13;;;4.27;;
8564;SDS011;4320;51.498;6.556;2023-04-25T00:52:18;11.63;;;4.47;;
8564;SDS011;4320;51.498;6.556;2023-04-25T00:54:44;11.60;;;5.07;;
8564;SDS011;4320;51.498;6.556;2023-04-25T00:57:10;11.00;;;4.30;;
8564;SDS011;4320;51.498;6.556;2023-04-25T00:59:36;12.90;;;5.40;;
8564;SDS011;4320;51.498;6.556;2023-04-25T01:02:02;12.23;;;5.37;;
8564;SDS011;4320;51.498;6.556;2023-04-25T01:04:29;13.27;;;4.93;;
8564;SDS011;4320;51.498;6.556;2023-04-25T01:06:55;13.43;;;5.27;;
8564;SDS011;4320;51.498;6.556;2023-04-25T01:09:21;18.80;;;4.80;;
8564;SDS011;4320;51.498;6.556;2023-04-25T01:11:48;9.33;;;4.63;;
8564;SDS011;4320;51.498;6.556;2023-04-25T01:14:14;16.20;;;5.10;;
8564;SDS011;4320;51.498;6.556;2023-04-25T01:16:40;9.70;;;4.43;;
8564;SDS011;4320;51.498;6.556;2023-04-25T01:19:09;13.70;;;5.23;;
8564;SDS011;4320;51.498;6.556;2023-04-25T01:21:38;18.80;;;6.00;;
8564;SDS011;4320;51.498;6.556;2023-04-25T01:24:05;16.37;;;6.20;;
8564;SDS011;4320;51.498;6.556;2023-04-25T01:26:31;12.93;;;5.40;;
8564;SDS011;4320;51.498;6.556;2023-04-25T01:28:58;10.80;;;5.57;;
8564;SDS011;4320;51.498;6.556;2023-04-25T01:31:24;11.47;;;5.40;;
8564;SDS011;4320;51.498;6.556;2023-04-25T01:33:52;13.43;;;5.27;;
8564;SDS011;4320;51.498;6.556;2023-04-25T01:36:18;8.75;;;4.70;;
8564;SDS011;4320;51.498;6.556;2023-04-25T01:38:45;10.32;;;5.45;;
8564;SDS011;4320;51.498;6.556;2023-04-25T01:41:12;12.37;;;6.00;;
8564;SDS011;4320;51.498;6.556;2023-04-25T01:43:39;13.17;;;5.20;;
8564;SDS011;4320;51.498;6.556;2023-04-25T01:46:05;13.18;;;5.53;;
8564;SDS011;4320;51.498;6.556;2023-04-25T01:48:31;17.07;;;4.63;;
8564;SDS011;4320;51.498;6.556;2023-04-25T01:50:56;12.57;;;5.67;;
8564;SDS011;4320;51.498;6.556;2023-04-25T01:53:22;8.60;;;4.93;;
8564;SDS011;4320;51.498;6.556;2023-04-25T01:55:48;12.47;;;4.97;;
8564;SDS011;4320;51.498;6.556;2023-04-25T01:58:14;10.83;;;5.53;;
8564;SDS011;4320;51.498;6.556;2023-04-25T02:00:40;9.57;;;4.77;;
8564;SDS011;4320;51.498;6.556;2023-04-25T02:03:06;11.47;;;5.70;;
8564;SDS011;4320;51.498;6.556;2023-04-25T02:05:36;11.25;;;5.38;;
8564;SDS011;4320;51.498;6.556;2023-04-25T02:08:04;12.98;;;5.40;;
8564;SDS011;4320;51.498;6.556;2023-04-25T02:10:31;11.03;;;4.73;;
8564;SDS011;4320;51.498;6.556;2023-04-25T02:12:57;9.45;;;4.75;;
8564;SDS011;4320;51.498;6.556;2023-04-25T02:15:23;15.60;;;5.15;;
8564;SDS011;4320;51.498;6.556;2023-04-25T02:17:49;10.52;;;4.38;;
8564;SDS011;4320;51.498;6.556;2023-04-25T02:20:14;11.90;;;5.22;;
8564;SDS011;4320;51.498;6.556;2023-04-25T02:22:43;13.75;;;5.28;;
8564;SDS011;4320;51.498;6.556;2023-04-25T02:25:08;11.48;;;4.95;;
8564;SDS011;4320;51.498;6.556;2023-04-25T02:27:35;9.43;;;4.83;;
8564;SDS011;4320;51.498;6.556;2023-04-25T02:30:00;12.15;;;4.57;;
8564;SDS011;4320;51.498;6.556;2023-04-25T02:32:26;19.33;;;5.00;;
8564;SDS011;4320;51.498;6.556;2023-04-25T02:34:52;9.27;;;4.47;;
8564;SDS011;4320;51.498;6.556;2023-04-25T02:37:18;14.88;;;5.38;;
8564;SDS011;4320;51.498;6.556;2023-04-25T02:39:43;9.70;;;4.03;;
8564;SDS011;4320;51.498;6.556;2023-04-25T02:42:09;11.00;;;4.47;;
8564;SDS011;4320;51.498;6.556;2023-04-25T02:44:35;12.70;;;4.40;;
8564;SDS011;4320;51.498;6.556;2023-04-25T02:47:01;11.17;;;4.80;;
8564;SDS011;4320;51.498;6.556;2023-04-25T02:49:27;11.30;;;4.78;;
8564;SDS011;4320;51.498;6.556;2023-04-25T02:51:52;10.20;;;4.90;;
8564;SDS011;4320;51.498;6.556;2023-04-25T02:54:18;21.55;;;5.65;;
8564;SDS011;4320;51.498;6.556;2023-04-25T02:56:43;10.32;;;4.68;;
8564;SDS011;4320;51.498;6.556;2023-04-25T02:59:09;13.93;;;4.83;;
8564;SDS011;4320;51.498;6.556;2023-04-25T03:01:35;9.10;;;4.47;;
8564;SDS011;4320;51.498;6.556;2023-04-25T03:04:00;18.70;;;4.90;;
8564;SDS011;4320;51.498;6.556;2023-04-25T03:06:26;12.90;;;5.30;;
8564;SDS011;4320;51.498;6.556;2023-04-25T03:08:51;17.43;;;4.90;;
8564;SDS011;4320;51.498;6.556;2023-04-25T03:11:17;10.37;;;4.50;;
8564;SDS011;4320;51.498;6.556;2023-04-25T03:13:45;11.67;;;4.33;;
8564;SDS011;4320;51.498;6.556;2023-04-25T03:16:10;12.73;;;4.77;;
8564;SDS011;4320;51.498;6.556;2023-04-25T03:18:36;14.77;;;4.90;;
8564;SDS011;4320;51.498;6.556;2023-04-25T03:21:02;16.47;;;5.37;;
8564;SDS011;4320;51.498;6.556;2023-04-25T03:23:27;17.33;;;5.43;;
8564;SDS011;4320;51.498;6.556;2023-04-25T03:25:53;8.23;;;4.43;;
8564;SDS011;4320;51.498;6.556;2023-04-25T03:28:18;11.30;;;5.13;;
8564;SDS011;4320;51.498;6.556;2023-04-25T03:30:45;12.03;;;5.60;;
8564;SDS011;4320;51.498;6.556;2023-04-25T03:33:10;15.57;;;5.20;;
8564;SDS011;4320;51.498;6.556;2023-04-25T03:35:36;12.07;;;5.30;;
8564;SDS011;4320;51.498;6.556;2023-04-25T03:38:01;16.47;;;6.57;;
8564;SDS011;4320;51.498;6.556;2023-04-25T03:40:27;19.77;;;5.77;;
8564;SDS011;4320;51.498;6.556;2023-04-25T03:42:53;17.60;;;5.53;;
8564;SDS011;4320;51.498;6.556;2023-04-25T03:45:18;12.00;;;4.80;;
8564;SDS011;4320;51.498;6.556;2023-04-25T03:47:44;16.20;;;5.33;;
8564;SDS011;4320;51.498;6.556;2023-04-25T03:50:09;14.03;;;5.70;;
8564;SDS011;4320;51.498;6.556;2023-04-25T03:52:35;18.23;;;5.43;;
8564;SDS011;4320;51.498;6.556;2023-04-25T03:55:01;12.47;;;5.27;;
8564;SDS011;4320;51.498;6.556;2023-04-25T03:57:27;10.47;;;5.10;;
8564;SDS011;4320;51.498;6.556;2023-04-25T03:59:52;11.53;;;4.87;;
8564;SDS011;4320;51.498;6.556;2023-04-25T04:02:18;14.13;;;5.17;;
8564;SDS011;4320;51.498;6.556;2023-04-25T04:04:43;13.37;;;5.20;;
8564;SDS011;4320;51.498;6.556;2023-04-25T04:07:09;12.33;;;5.33;;
8564;SDS011;4320;51.498;6.556;2023-04-25T04:09:35;12.97;;;5.43;;
8564;SDS011;4320;51.498;6.556;2023-04-25T04:12:01;19.77;;;5.37;;
8564;SDS011;4320;51.498;6.556;2023-04-25T04:14:27;14.93;;;5.40;;
8564;SDS011;4320;51.498;6.556;2023-04-25T04:16:53;14.47;;;5.20;;
8564;SDS011;4320;51.498;6.556;2023-04-25T04:19:19;12.70;;;4.97;;
8564;SDS011;4320;51.498;6.556;2023-04-25T04:21:45;13.43;;;6.00;;
8564;SDS011;4320;51.498;6.556;2023-04-25T04:24:11;15.13;;;5.20;;
8564;SDS011;4320;51.498;6.556;2023-04-25T04:26:36;18.47;;;6.73;;
8564;SDS011;4320;51.498;6.556;2023-04-25T04:29:03;14.90;;;5.10;;
8564;SDS011;4320;51.498;6.556;2023-04-25T04:31:29;16.77;;;5.97;;
8564;SDS011;4320;51.498;6.556;2023-04-25T04:33:55;15.77;;;6.00;;
8564;SDS011;4320;51.498;6.556;2023-04-25T04:36:21;15.70;;;5.77;;
8564;SDS011;4320;51.498;6.556;2023-04-25T04:38:48;14.63;;;5.30;;
8564;SDS011;4320;51.498;6.556;2023-04-25T04:41:13;15.73;;;5.10;;
8564;SDS011;4320;51.498;6.556;2023-04-25T04:43:39;18.67;;;5.60;;
8564;SDS011;4320;51.498;6.556;2023-04-25T04:46:05;15.90;;;5.93;;
8564;SDS011;4320;51.498;6.556;2023-04-25T04:48:31;18.80;;;5.27;;
8564;SDS011;4320;51.498;6.556;2023-04-25T04:51:00;13.83;;;5.57;;
8564;SDS011;4320;51.498;6.556;2023-04-25T04:53:26;17.87;;;5.67;;
8564;SDS011;4320;51.498;6.556;2023-04-25T04:55:52;16.47;;;6.13;;
8564;SDS011;4320;51.498;6.556;2023-04-25T04:58:17;12.83;;;5.30;;
8564;SDS011;4320;51.498;6.556;2023-04-25T05:00:43;12.77;;;5.40;;
8564;SDS011;4320;51.498;6.556;2023-04-25T05:03:09;11.47;;;4.73;;
8564;SDS011;4320;51.498;6.556;2023-04-25T05:05:36;15.23;;;5.97;;
8564;SDS011;4320;51.498;6.556;2023-04-25T05:08:04;13.23;;;4.73;;
8564;SDS011;4320;51.498;6.556;2023-04-25T05:10:31;13.70;;;5.03;;
8564;SDS011;4320;51.498;6.556;2023-04-25T05:12:56;13.83;;;4.97;;
8564;SDS011;4320;51.498;6.556;2023-04-25T05:15:22;11.13;;;5.37;;
8564;SDS011;4320;51.498;6.556;2023-04-25T05:17:48;15.33;;;6.07;;
8564;SDS011;4320;51.498;6.556;2023-04-25T05:20:13;13.33;;;5.53;;
8564;SDS011;4320;51.498;6.556;2023-04-25T05:22:39;11.10;;;5.10;;
8564;SDS011;4320;51.498;6.556;2023-04-25T05:25:06;11.10;;;5.83;;
8564;SDS011;4320;51.498;6.556;2023-04-25T05:27:33;15.40;;;5.33;;
8564;SDS011;4320;51.498;6.556;2023-04-25T05:29:58;15.37;;;5.07;;
8564;SDS011;4320;51.498;6.556;2023-04-25T05:32:24;16.67;;;5.30;;
8564;SDS011;4320;51.498;6.556;2023-04-25T05:34:50;13.03;;;5.73;;
8564;SDS011;4320;51.498;6.556;2023-04-25T05:37:16;14.45;;;4.95;;
8564;SDS011;4320;51.498;6.556;2023-04-25T05:39:42;13.87;;;4.80;;
8564;SDS011;4320;51.498;6.556;2023-04-25T05:42:08;15.80;;;5.50;;
8564;SDS011;4320;51.498;6.556;2023-04-25T05:44:33;15.90;;;5.10;;
8564;SDS011;4320;51.498;6.556;2023-04-25T05:46:59;15.50;;;5.07;;
8564;SDS011;4320;51.498;6.556;2023-04-25T05:49:25;13.70;;;4.70;;
8564;SDS011;4320;51.498;6.556;2023-04-25T05:51:50;11.50;;;4.65;;
8564;SDS011;4320;51.498;6.556;2023-04-25T05:54:16;17.30;;;5.07;;
8564;SDS011;4320;51.498;6.556;2023-04-25T05:56:41;13.27;;;5.15;;
8564;SDS011;4320;51.498;6.556;2023-04-25T05:59:07;11.88;;;5.40;;
8564;SDS011;4320;51.498;6.556;2023-04-25T06:01:33;16.23;;;4.93;;
8564;SDS011;4320;51.498;6.556;2023-04-25T06:03:58;12.10;;;5.18;;
8564;SDS011;4320;51.498;6.556;2023-04-25T06:06:24;10.27;;;4.25;;
8564;SDS011;4320;51.498;6.556;2023-04-25T06:08:51;13.25;;;4.55;;
8564;SDS011;4320;51.498;6.556;2023-04-25T06:11:17;12.75;;;5.25;;
8564;SDS011;4320;51.498;6.556;2023-04-25T06:13:43;17.08;;;5.20;;
8564;SDS011;4320;51.498;6.556;2023-04-25T06:16:08;11.23;;;4.75;;
8564;SDS011;4320;51.498;6.556;2023-04-25T06:18:34;13.70;;;4.97;;
8564;SDS011;4320;51.498;6.556;2023-04-25T06:20:59;19.13;;;4.90;;
8564;SDS011;4320;51.498;6.556;2023-04-25T06:23:25;9.82;;;4.30;;
8564;SDS011;4320;51.498;6.556;2023-04-25T06:25:51;9.27;;;4.45;;
8564;SDS011;4320;51.498;6.556;2023-04-25T06:28:17;11.75;;;4.38;;
8564;SDS011;4320;51.498;6.556;2023-04-25T06:30:42;12.88;;;4.95;;
8564;SDS011;4320;51.498;6.556;2023-04-25T06:33:08;13.18;;;4.30;;
8564;SDS011;4320;51.498;6.556;2023-04-25T06:35:34;13.20;;;4.45;;
8564;SDS011;4320;51.498;6.556;2023-04-25T06:38:00;11.13;;;4.22;;
8564;SDS011;4320;51.498;6.556;2023-04-25T06:40:25;14.05;;;5.00;;
8564;SDS011;4320;51.498;6.556;2023-04-25T06:42:51;7.63;;;3.83;;
8564;SDS011;4320;51.498;6.556;2023-04-25T06:45:17;9.77;;;3.40;;
8564;SDS011;4320;51.498;6.556;2023-04-25T06:47:42;15.95;;;5.22;;
8564;SDS011;4320;51.498;6.556;2023-04-25T06:50:08;7.93;;;3.92;;
8564;SDS011;4320;51.498;6.556;2023-04-25T06:52:34;9.30;;;3.92;;
8564;SDS011;4320;51.498;6.556;2023-04-25T06:54:59;9.77;;;4.10;;
8564;SDS011;4320;51.498;6.556;2023-04-25T06:57:25;18.15;;;4.72;;
8564;SDS011;4320;51.498;6.556;2023-04-25T06:59:51;12.35;;;4.55;;
8564;SDS011;4320;51.498;6.556;2023-04-25T07:02:16;12.20;;;3.95;;
8564;SDS011;4320;51.498;6.556;2023-04-25T07:04:42;10.73;;;3.65;;
8564;SDS011;4320;51.498;6.556;2023-04-25T07:07:07;11.80;;;3.72;;
8564;SDS011;4320;51.498;6.556;2023-04-25T07:09:33;8.90;;;3.15;;
8564;SDS011;4320;51.498;6.556;2023-04-25T07:11:59;7.60;;;2.92;;
8564;SDS011;4320;51.498;6.556;2023-04-25T07:14:26;10.63;;;3.08;;
8564;SDS011;4320;51.498;6.556;2023-04-25T07:16:52;10.57;;;3.85;;
8564;SDS011;4320;51.498;6.556;2023-04-25T07:19:18;13.23;;;3.70;;
8564;SDS011;4320;51.498;6.556;2023-04-25T07:21:43;10.35;;;3.20;;
8564;SDS011;4320;51.498;6.556;2023-04-25T07:24:09;9.50;;;2.75;;
8564;SDS011;4320;51.498;6.556;2023-04-25T07:26:35;7.38;;;2.92;;
8564;SDS011;4320;51.498;6.556;2023-04-25T07:29:00;9.05;;;3.17;;
8564;SDS011;4320;51.498;6.556;2023-04-25T07:31:26;7.13;;;2.83;;
8564;SDS011;4320;51.498;6.556;2023-04-25T07:33:52;11.20;;;2.95;;
8564;SDS011;4320;51.498;6.556;2023-04-25T07:36:17;8.32;;;2.83;;
8564;SDS011;4320;51.498;6.556;2023-04-25T07:38:43;8.50;;;3.28;;
8564;SDS011;4320;51.498;6.556;2023-04-25T07:41:08;11.80;;;3.00;;
8564;SDS011;4320;51.498;6.556;2023-04-25T07:43:34;7.85;;;2.92;;
8564;SDS011;4320;51.498;6.556;2023-04-25T07:46:00;8.27;;;2.65;;
8564;SDS011;4320;51.498;6.556;2023-04-25T07:48:25;6.72;;;3.00;;
8564;SDS011;4320;51.498;6.556;2023-04-25T07:50:51;5.35;;;2.80;;
8564;SDS011;4320;51.498;6.556;2023-04-25T07:53:17;7.70;;;2.67;;
8564;SDS011;4320;51.498;6.556;2023-04-25T07:55:43;7.32;;;3.25;;
8564;SDS011;4320;51.498;6.556;2023-04-25T07:58:09;8.15;;;2.70;;
8564;SDS011;4320;51.498;6.556;2023-04-25T08:00:36;8.18;;;2.55;;
8564;SDS011;4320;51.498;6.556;2023-04-25T08:03:01;8.30;;;2.65;;
8564;SDS011;4320;51.498;6.556;2023-04-25T08:05:27;7.45;;;2.88;;
8564;SDS011;4320;51.498;6.556;2023-04-25T08:07:53;8.18;;;2.70;;
8564;SDS011;4320;51.498;6.556;2023-04-25T08:10:19;7.80;;;2.17;;
8564;SDS011;4320;51.498;6.556;2023-04-25T08:12:45;10.15;;;2.65;;
8564;SDS011;4320;51.498;6.556;2023-04-25T08:15:11;7.97;;;2.30;;
8564;SDS011;4320;51.498;6.556;2023-04-25T08:17:38;6.63;;;2.67;;
8564;SDS011;4320;51.498;6.556;2023-04-25T08:20:04;6.07;;;2.17;;
8564;SDS011;4320;51.498;6.556;2023-04-25T08:22:30;10.25;;;2.35;;
8564;SDS011;4320;51.498;6.556;2023-04-25T08:24:56;8.02;;;2.05;;
8564;SDS011;4320;51.498;6.556;2023-04-25T08:27:22;5.03;;;2.13;;
8564;SDS011;4320;51.498;6.556;2023-04-25T08:29:48;5.53;;;2.03;;
8564;SDS011;4320;51.498;6.556;2023-04-25T08:32:14;4.80;;;2.20;;
8564;SDS011;4320;51.498;6.556;2023-04-25T08:34:40;8.85;;;2.58;;
8564;SDS011;4320;51.498;6.556;2023-04-25T08:37:07;9.18;;;2.20;;
8564;SDS011;4320;51.498;6.556;2023-04-25T08:39:35;8.77;;;2.20;;
8564;SDS011;4320;51.498;6.556;2023-04-25T08:42:01;4.45;;;1.80;;
8564;SDS011;4320;51.498;6.556;2023-04-25T08:44:32;6.82;;;2.00;;
8564;SDS011;4320;51.498;6.556;2023-04-25T08:47:00;6.80;;;2.05;;
8564;SDS011;4320;51.498;6.556;2023-04-25T08:49:33;6.47;;;2.03;;
8564;SDS011;4320;51.498;6.556;2023-04-25T08:52:00;4.30;;;1.70;;
8564;SDS011;4320;51.498;6.556;2023-04-25T08:54:28;8.75;;;2.40;;
8564;SDS011;4320;51.498;6.556;2023-04-25T08:56:56;5.93;;;2.28;;
8564;SDS011;4320;51.498;6.556;2023-04-25T08:59:26;7.10;;;2.38;;
8564;SDS011;4320;51.498;6.556;2023-04-25T09:01:53;5.65;;;1.65;;
8564;SDS011;4320;51.498;6.556;2023-04-25T09:04:18;4.63;;;1.77;;
8564;SDS011;4320;51.498;6.556;2023-04-25T09:06:45;6.45;;;2.17;;
8564;SDS011;4320;51.498;6.556;2023-04-25T09:09:11;5.93;;;1.67;;
8564;SDS011;4320;51.498;6.556;2023-04-25T09:11:37;4.82;;;1.83;;
8564;SDS011;4320;51.498;6.556;2023-04-25T09:14:16;6.43;;;2.08;;
8564;SDS011;4320;51.498;6.556;2023-04-25T09:19:38;7.65;;;1.52;;
8564;SDS011;4320;51.498;6.556;2023-04-25T09:22:05;4.40;;;2.13;;
8564;SDS011;4320;51.498;6.556;2023-04-25T09:29:36;6.88;;;2.10;;
8564;SDS011;4320;51.498;6.556;2023-04-25T09:32:15;8.35;;;2.40;;
8564;SDS011;4320;51.498;6.556;2023-04-25T09:34:48;4.65;;;1.80;;
8564;SDS011;4320;51.498;6.556;2023-04-25T09:37:48;5.13;;;1.85;;
8564;SDS011;4320;51.498;6.556;2023-04-25T09:40:07;6.28;;;2.65;;
8564;SDS011;4320;51.498;6.556;2023-04-25T09:42:35;6.18;;;2.50;;
8564;SDS011;4320;51.498;6.556;2023-04-25T09:45:01;5.28;;;2.10;;
8564;SDS011;4320;51.498;6.556;2023-04-25T09:47:28;4.68;;;1.80;;
8564;SDS011;4320;51.498;6.556;2023-04-25T09:49:54;6.07;;;2.10;;
8564;SDS011;4320;51.498;6.556;2023-04-25T09:52:21;7.53;;;2.72;;
8564;SDS011;4320;51.498;6.556;2023-04-25T09:54:50;9.05;;;2.33;;
8564;SDS011;4320;51.498;6.556;2023-04-25T09:57:17;8.32;;;1.77;;
8564;SDS011;4320;51.498;6.556;2023-04-25T09:59:52;6.05;;;1.83;;
8564;SDS011;4320;51.498;6.556;2023-04-25T10:02:24;8.35;;;2.05;;
8564;SDS011;4320;51.498;6.556;2023-04-25T10:04:51;5.82;;;1.90;;
8564;SDS011;4320;51.498;6.556;2023-04-25T10:07:20;5.07;;;2.15;;
8564;SDS011;4320;51.498;6.556;2023-04-25T10:09:50;5.93;;;2.22;;
8564;SDS011;4320;51.498;6.556;2023-04-25T10:12:27;6.35;;;1.70;;
8564;SDS011;4320;51.498;6.556;2023-04-25T10:14:54;6.47;;;2.08;;
8564;SDS011;4320;51.498;6.556;2023-04-25T10:17:20;7.28;;;1.90;;
8564;SDS011;4320;51.498;6.556;2023-04-25T10:19:46;6.50;;;1.92;;
8564;SDS011;4320;51.498;6.556;2023-04-25T10:22:14;4.18;;;1.73;;
8564;SDS011;4320;51.498;6.556;2023-04-25T10:24:48;4.40;;;2.50;;
8564;SDS011;4320;51.498;6.556;2023-04-25T10:27:15;7.65;;;2.92;;
8564;SDS011;4320;51.498;6.556;2023-04-25T10:29:42;5.55;;;2.30;;
8564;SDS011;4320;51.498;6.556;2023-04-25T10:32:10;4.07;;;2.00;;
8564;SDS011;4320;51.498;6.556;2023-04-25T10:34:40;4.45;;;2.05;;
8564;SDS011;4320;51.498;6.556;2023-04-25T10:37:10;3.47;;;1.95;;
8564;SDS011;4320;51.498;6.556;2023-04-25T10:39:37;5.57;;;2.08;;
8564;SDS011;4320;51.498;6.556;2023-04-25T10:42:05;5.65;;;2.10;;
8564;SDS011;4320;51.498;6.556;2023-04-25T10:44:32;3.15;;;1.65;;
8564;SDS011;4320;51.498;6.556;2023-04-25T10:46:59;5.93;;;2.20;;
8564;SDS011;4320;51.498;6.556;2023-04-25T10:49:36;4.50;;;1.63;;
8564;SDS011;4320;51.498;6.556;2023-04-25T10:54:40;1.75;;;1.40;;
8564;SDS011;4320;51.498;6.556;2023-04-25T10:57:26;4.35;;;1.92;;
8564;SDS011;4320;51.498;6.556;2023-04-25T10:59:54;3.60;;;1.67;;
8564;SDS011;4320;51.498;6.556;2023-04-25T11:02:40;4.55;;;1.77;;
8564;SDS011;4320;51.498;6.556;2023-04-25T11:05:37;5.85;;;2.10;;
8564;SDS011;4320;51.498;6.556;2023-04-25T11:08:03;5.07;;;2.47;;
8564;SDS011;4320;51.498;6.556;2023-04-25T11:10:36;3.28;;;1.73;;
8564;SDS011;4320;51.498;6.556;2023-04-25T11:13:02;3.83;;;1.83;;
8564;SDS011;4320;51.498;6.556;2023-04-25T11:15:28;4.60;;;1.95;;
8564;SDS011;4320;51.498;6.556;2023-04-25T11:17:54;3.40;;;1.92;;
8564;SDS011;4320;51.498;6.556;2023-04-25T11:20:20;5.55;;;1.92;;
8564;SDS011;4320;51.498;6.556;2023-04-25T11:22:46;5.22;;;2.30;;
8564;SDS011;4320;51.498;6.556;2023-04-25T11:25:13;5.63;;;2.10;;
8564;SDS011;4320;51.498;6.556;2023-04-25T11:27:50;6.47;;;1.70;;
8564;SDS011;4320;51.498;6.556;2023-04-25T11:30:21;8.38;;;2.10;;
8564;SDS011;4320;51.498;6.556;2023-04-25T11:32:47;9.55;;;2.15;;
8564;SDS011;4320;51.498;6.556;2023-04-25T11:35:13;5.72;;;2.20;;
8564;SDS011;4320;51.498;6.556;2023-04-25T11:37:40;7.07;;;2.10;;
8564;SDS011;4320;51.498;6.556;2023-04-25T11:40:06;4.70;;;2.13;;
8564;SDS011;4320;51.498;6.556;2023-04-25T11:42:34;5.00;;;2.10;;
8564;SDS011;4320;51.498;6.556;2023-04-25T11:45:18;5.53;;;2.38;;
8564;SDS011;4320;51.498;6.556;2023-04-25T11:47:43;9.38;;;2.70;;
8564;SDS011;4320;51.498;6.556;2023-04-25T11:50:09;7.35;;;2.40;;
8564;SDS011;4320;51.498;6.556;2023-04-25T11:52:42;4.65;;;2.50;;
8564;SDS011;4320;51.498;6.556;2023-04-25T11:55:12;5.45;;;2.40;;
8564;SDS011;4320;51.498;6.556;2023-04-25T11:57:43;5.97;;;2.30;;
8564;SDS011;4320;51.498;6.556;2023-04-25T12:00:14;3.70;;;1.88;;
8564;SDS011;4320;51.498;6.556;2023-04-25T12:02:45;5.13;;;2.00;;
8564;SDS011;4320;51.498;6.556;2023-04-25T12:05:13;6.00;;;1.77;;
8564;SDS011;4320;51.498;6.556;2023-04-25T12:07:40;5.35;;;1.80;;
8564;SDS011;4320;51.498;6.556;2023-04-25T12:10:13;6.07;;;1.60;;
8564;SDS011;4320;51.498;6.556;2023-04-25T12:12:43;6.78;;;1.90;;
8564;SDS011;4320;51.498;6.556;2023-04-25T12:17:48;5.65;;;1.98;;
8564;SDS011;4320;51.498;6.556;2023-04-25T12:20:18;4.80;;;1.98;;
8564;SDS011;4320;51.498;6.556;2023-04-25T12:22:45;5.43;;;1.70;;
8564;SDS011;4320;51.498;6.556;2023-04-25T12:28:12;3.67;;;1.92;;
8564;SDS011;4320;51.498;6.556;2023-04-25T12:30:55;3.90;;;2.38;;
8564;SDS011;4320;51.498;6.556;2023-04-25T12:33:22;6.45;;;2.20;;
8564;SDS011;4320;51.498;6.556;2023-04-25T12:35:48;5.43;;;2.35;;
8564;SDS011;4320;51.498;6.556;2023-04-25T12:38:26;6.65;;;2.45;;
8564;SDS011;4320;51.498;6.556;2023-04-25T12:40:54;5.38;;;1.92;;
8564;SDS011;4320;51.498;6.556;2023-04-25T12:43:21;6.28;;;2.08;;
8564;SDS011;4320;51.498;6.556;2023-04-25T12:45:47;4.63;;;1.75;;
8564;SDS011;4320;51.498;6.556;2023-04-25T12:48:14;6.25;;;1.80;;
8564;SDS011;4320;51.498;6.556;2023-04-25T12:50:40;5.60;;;1.85;;
8564;SDS011;4320;51.498;6.556;2023-04-25T12:53:06;3.70;;;1.65;;
8564;SDS011;4320;51.498;6.556;2023-04-25T12:55:32;3.13;;;1.88;;
8564;SDS011;4320;51.498;6.556;2023-04-25T12:57:57;7.32;;;1.90;;
8564;SDS011;4320;51.498;6.556;2023-04-25T13:00:23;5.70;;;2.10;;
8564;SDS011;4320;51.498;6.556;2023-04-25T13:02:49;4.32;;;1.58;;
8564;SDS011;4320;51.498;6.556;2023-04-25T13:05:15;4.70;;;1.60;;
8564;SDS011;4320;51.498;6.556;2023-04-25T13:07:40;3.22;;;1.90;;
8564;SDS011;4320;51.498;6.556;2023-04-25T13:10:06;5.57;;;1.70;;
8564;SDS011;4320;51.498;6.556;2023-04-25T13:12:32;5.88;;;1.50;;
8564;SDS011;4320;51.498;6.556;2023-04-25T13:14:58;3.72;;;2.22;;
8564;SDS011;4320;51.498;6.556;2023-04-25T13:17:23;3.22;;;1.63;;
8564;SDS011;4320;51.498;6.556;2023-04-25T13:19:49;2.97;;;1.50;;
8564;SDS011;4320;51.498;6.556;2023-04-25T13:22:15;3.35;;;1.50;;
8564;SDS011;4320;51.498;6.556;2023-04-25T13:24:42;5.78;;;1.83;;
8564;SDS011;4320;51.498;6.556;2023-04-25T13:27:08;4.93;;;1.70;;
8564;SDS011;4320;51.498;6.556;2023-04-25T13:29:33;4.63;;;1.80;;
8564;SDS011;4320;51.498;6.556;2023-04-25T13:32:00;4.80;;;1.80;;
8564;SDS011;4320;51.498;6.556;2023-04-25T13:34:27;4.22;;;1.70;;
8564;SDS011;4320;51.498;6.556;2023-04-25T13:36:55;3.75;;;1.65;;
8564;SDS011;4320;51.498;6.556;2023-04-25T13:39:21;2.50;;;1.40;;
8564;SDS011;4320;51.498;6.556;2023-04-25T13:41:47;4.88;;;1.60;;
8564;SDS011;4320;51.498;6.556;2023-04-25T13:44:12;5.32;;;1.80;;
8564;SDS011;4320;51.498;6.556;2023-04-25T13:46:38;2.15;;;1.65;;
8564;SDS011;4320;51.498;6.556;2023-04-25T13:49:04;5.07;;;2.53;;
8564;SDS011;4320;51.498;6.556;2023-04-25T13:51:29;5.18;;;1.70;;
8564;SDS011;4320;51.498;6.556;2023-04-25T13:53:56;4.95;;;1.80;;
8564;SDS011;4320;51.498;6.556;2023-04-25T13:56:22;4.35;;;1.60;;
8564;SDS011;4320;51.498;6.556;2023-04-25T13:58:49;7.03;;;1.40;;
8564;SDS011;4320;51.498;6.556;2023-04-25T14:01:16;2.13;;;1.40;;
8564;SDS011;4320;51.498;6.556;2023-04-25T14:03:42;2.88;;;1.20;;
8564;SDS011;4320;51.498;6.556;2023-04-25T14:06:08;3.67;;;1.45;;
8564;SDS011;4320;51.498;6.556;2023-04-25T14:08:34;2.10;;;1.50;;
8564;SDS011;4320;51.498;6.556;2023-04-25T14:10:59;1.77;;;1.48;;
8564;SDS011;4320;51.498;6.556;2023-04-25T14:13:25;2.00;;;1.30;;
8564;SDS011;4320;51.498;6.556;2023-04-25T14:15:51;3.38;;;1.48;;
8564;SDS011;4320;51.498;6.556;2023-04-25T14:18:17;2.55;;;1.63;;
8564;SDS011;4320;51.498;6.556;2023-04-25T14:20:46;7.03;;;1.95;;
8564;SDS011;4320;51.498;6.556;2023-04-25T14:23:12;5.78;;;2.05;;
8564;SDS011;4320;51.498;6.556;2023-04-25T14:25:38;5.68;;;1.88;;
8564;SDS011;4320;51.498;6.556;2023-04-25T14:28:05;2.03;;;1.25;;
8564;SDS011;4320;51.498;6.556;2023-04-25T14:30:31;4.55;;;1.60;;
8564;SDS011;4320;51.498;6.556;2023-04-25T14:32:56;4.18;;;1.60;;
8564;SDS011;4320;51.498;6.556;2023-04-25T14:35:23;2.50;;;1.33;;
8564;SDS011;4320;51.498;6.556;2023-04-25T14:37:49;2.60;;;1.48;;
8564;SDS011;4320;51.498;6.556;2023-04-25T14:40:15;2.63;;;1.67;;
8564;SDS011;4320;51.498;6.556;2023-04-25T14:42:41;4.43;;;1.55;;
8564;SDS011;4320;51.498;6.556;2023-04-25T14:45:07;4.00;;;1.55;;
8564;SDS011;4320;51.498;6.556;2023-04-25T14:47:34;5.35;;;1.58;;
8564;SDS011;4320;51.498;6.556;2023-04-25T14:50:01;2.30;;;1.40;;
8564;SDS011;4320;51.498;6.556;2023-04-25T14:52:27;3.45;;;1.55;;
8564;SDS011;4320;51.498;6.556;2023-04-25T14:54:52;7.10;;;1.70;;
8564;SDS011;4320;51.498;6.556;2023-04-25T14:57:18;3.58;;;1.90;;
8564;SDS011;4320;51.498;6.556;2023-04-25T14:59:44;4.97;;;1.73;;
8564;SDS011;4320;51.498;6.556;2023-04-25T15:02:10;4.57;;;1.77;;
8564;SDS011;4320;51.498;6.556;2023-04-25T15:04:36;4.10;;;1.52;;
8564;SDS011;4320;51.498;6.556;2023-04-25T15:07:01;3.75;;;1.80;;
8564;SDS011;4320;51.498;6.556;2023-04-25T15:09:27;6.60;;;1.77;;
8564;SDS011;4320;51.498;6.556;2023-04-25T15:11:53;4.18;;;1.65;;
8564;SDS011;4320;51.498;6.556;2023-04-25T15:14:19;2.65;;;1.65;;
8564;SDS011;4320;51.498;6.556;2023-04-25T15:16:44;4.80;;;1.77;;
8564;SDS011;4320;51.498;6.556;2023-04-25T15:19:10;3.58;;;1.40;;
8564;SDS011;4320;51.498;6.556;2023-04-25T15:21:36;3.72;;;1.40;;
8564;SDS011;4320;51.498;6.556;2023-04-25T15:24:02;4.93;;;1.85;;